sensor_id;sensor_type;location;lat;lon;timestamp;P1;durP1;ratioP1;P2;durP2;ratioP2
15151;SDS011;7676;50.900;6.234;2024-03-25T00:05:35;6.57;;;2.83;;
15151;SDS011;7676;50.900;6.234;2024-03-25T00:20:38;8.67;;;3.17;;
15151;SDS011;7676;50.900;6.234;2024-03-25T00:35:40;6.83;;;3.10;;
15151;SDS011;7676;50.900;6.234;2024-03-25T00:50:41;7.23;;;3.23;;
15151;SDS011;7676;50.900;6.234;2024-03-25T01:05:43;9.80;;;2.93;;
15151;SDS011;7676;50.900;6.234;2024-03-25T01:20:45;6.47;;;2.93;;
15151;SDS011;7676;50.900;6.234;2024-03-25T01:35:46;8.53;;;3.03;;
15151;SDS011;7676;50.900;6.234;2024-03-25T01:50:48;7.77;;;3.00;;
15151;SDS011;7676;50.900;6.234;2024-03-25T02:05:50;10.87;;;3.33;;
15151;SDS011;7676;50.900;6.234;2024-03-25T02:20:58;9.43;;;3.40;;
15151;SDS011;7676;50.900;6.234;2024-03-25T02:36:00;10.20;;;3.60;;
15151;SDS011;7676;50.900;6.234;2024-03-25T02:51:02;7.60;;;3.13;;
15151;SDS011;7676;50.900;6.234;2024-03-25T03:06:04;7.47;;;3.50;;
15151;SDS011;7676;50.900;6.234;2024-03-25T03:21:06;6.37;;;2.77;;
15151;SDS011;7676;50.900;6.234;2024-03-25T03:36:08;5.73;;;2.83;;
15151;SDS011;7676;50.900;6.234;2024-03-25T03:51:10;7.17;;;3.37;;
15151;SDS011;7676;50.900;6.234;2024-03-25T04:06:12;8.33;;;3.50;;
15151;SDS011;7676;50.900;6.234;2024-03-25T04:21:15;8.60;;;3.80;;
15151;SDS011;7676;50.900;6.234;2024-03-25T04:36:16;5.83;;;3.30;;
15151;SDS011;7676;50.900;6.234;2024-03-25T04:51:18;5.70;;;3.13;;
15151;SDS011;7676;50.900;6.234;2024-03-25T05:06:20;5.87;;;2.93;;
15151;SDS011;7676;50.900;6.234;2024-03-25T05:21:22;8.30;;;6.47;;
15151;SDS011;7676;50.900;6.234;2024-03-25T05:36:24;5.73;;;4.20;;
15151;SDS011;7676;50.900;6.234;2024-03-25T05:51:25;4.20;;;3.50;;
15151;SDS011;7676;50.900;6.234;2024-03-25T06:06:27;6.13;;;3.43;;
15151;SDS011;7676;50.900;6.234;2024-03-25T06:21:29;6.53;;;4.20;;
15151;SDS011;7676;50.900;6.234;2024-03-25T06:36:31;10.93;;;6.33;;
15151;SDS011;7676;50.900;6.234;2024-03-25T06:51:32;15.00;;;9.30;;
15151;SDS011;7676;50.900;6.234;2024-03-25T07:06:34;15.47;;;9.73;;
15151;SDS011;7676;50.900;6.234;2024-03-25T07:21:38;17.90;;;10.63;;
15151;SDS011;7676;50.900;6.234;2024-03-25T07:36:40;18.40;;;10.57;;
15151;SDS011;7676;50.900;6.234;2024-03-25T07:51:42;14.83;;;9.13;;
15151;SDS011;7676;50.900;6.234;2024-03-25T08:06:44;10.47;;;6.87;;
15151;SDS011;7676;50.900;6.234;2024-03-25T08:21:46;9.20;;;5.97;;
15151;SDS011;7676;50.900;6.234;2024-03-25T08:36:49;12.27;;;6.10;;
15151;SDS011;7676;50.900;6.234;2024-03-25T08:51:51;6.77;;;4.53;;
15151;SDS011;7676;50.900;6.234;2024-03-25T09:06:55;8.30;;;4.17;;
15151;SDS011;7676;50.900;6.234;2024-03-25T09:21:58;11.00;;;6.83;;
15151;SDS011;7676;50.900;6.234;2024-03-25T09:37:01;8.40;;;5.40;;
15151;SDS011;7676;50.900;6.234;2024-03-25T09:52:05;7.30;;;4.37;;
15151;SDS011;7676;50.900;6.234;2024-03-25T10:07:08;6.77;;;3.40;;
15151;SDS011;7676;50.900;6.234;2024-03-25T10:22:10;5.67;;;3.00;;
15151;SDS011;7676;50.900;6.234;2024-03-25T10:37:12;7.83;;;3.80;;
15151;SDS011;7676;50.900;6.234;2024-03-25T10:52:17;6.70;;;2.77;;
15151;SDS011;7676;50.900;6.234;2024-03-25T11:07:28;5.37;;;2.70;;
15151;SDS011;7676;50.900;6.234;2024-03-25T11:22:32;4.33;;;2.37;;
15151;SDS011;7676;50.900;6.234;2024-03-25T11:37:39;5.27;;;2.60;;
15151;SDS011;7676;50.900;6.234;2024-03-25T11:52:43;4.13;;;2.20;;
15151;SDS011;7676;50.900;6.234;2024-03-25T12:07:45;3.77;;;2.03;;
15151;SDS011;7676;50.900;6.234;2024-03-25T12:22:48;5.67;;;2.10;;
15151;SDS011;7676;50.900;6.234;2024-03-25T12:37:52;4.77;;;2.27;;
15151;SDS011;7676;50.900;6.234;2024-03-25T12:53:02;4.23;;;2.20;;
15151;SDS011;7676;50.900;6.234;2024-03-25T13:08:35;3.83;;;2.27;;
15151;SDS011;7676;50.900;6.234;2024-03-25T13:23:38;3.80;;;2.50;;
15151;SDS011;7676;50.900;6.234;2024-03-25T13:38:40;5.03;;;2.77;;
15151;SDS011;7676;50.900;6.234;2024-03-25T13:53:43;4.40;;;2.00;;
15151;SDS011;7676;50.900;6.234;2024-03-25T14:08:46;3.67;;;2.20;;
15151;SDS011;7676;50.900;6.234;2024-03-25T14:23:50;4.87;;;2.43;;
15151;SDS011;7676;50.900;6.234;2024-03-25T14:38:52;4.57;;;2.00;;
15151;SDS011;7676;50.900;6.234;2024-03-25T14:53:58;3.23;;;2.13;;
15151;SDS011;7676;50.900;6.234;2024-03-25T15:09:04;6.10;;;1.80;;
15151;SDS011;7676;50.900;6.234;2024-03-25T15:24:11;4.23;;;2.00;;
15151;SDS011;7676;50.900;6.234;2024-03-25T15:55:15;3.13;;;1.70;;
15151;SDS011;7676;50.900;6.234;2024-03-25T16:10:31;2.80;;;1.47;;
15151;SDS011;7676;50.900;6.234;2024-03-25T16:52:34;3.07;;;1.90;;
15151;SDS011;7676;50.900;6.234;2024-03-25T17:07:40;2.33;;;1.80;;
15151;SDS011;7676;50.900;6.234;2024-03-25T17:22:42;3.47;;;1.60;;
15151;SDS011;7676;50.900;6.234;2024-03-25T17:37:44;5.90;;;2.10;;
15151;SDS011;7676;50.900;6.234;2024-03-25T17:52:48;3.20;;;1.83;;
15151;SDS011;7676;50.900;6.234;2024-03-25T18:07:50;3.33;;;1.70;;
15151;SDS011;7676;50.900;6.234;2024-03-25T18:22:52;3.67;;;1.90;;
15151;SDS011;7676;50.900;6.234;2024-03-25T18:37:55;2.37;;;1.70;;
15151;SDS011;7676;50.900;6.234;2024-03-25T18:52:57;3.47;;;1.70;;
15151;SDS011;7676;50.900;6.234;2024-03-25T19:08:00;5.23;;;2.10;;
15151;SDS011;7676;50.900;6.234;2024-03-25T19:23:04;4.03;;;1.60;;
15151;SDS011;7676;50.900;6.234;2024-03-25T19:38:07;4.10;;;1.70;;
15151;SDS011;7676;50.900;6.234;2024-03-25T19:53:10;3.37;;;1.60;;
15151;SDS011;7676;50.900;6.234;2024-03-25T20:08:12;4.40;;;1.70;;
15151;SDS011;7676;50.900;6.234;2024-03-25T20:23:14;2.90;;;1.70;;
15151;SDS011;7676;50.900;6.234;2024-03-25T20:38:17;2.03;;;1.70;;
15151;SDS011;7676;50.900;6.234;2024-03-25T20:53:20;2.27;;;1.80;;
15151;SDS011;7676;50.900;6.234;2024-03-25T21:08:23;3.23;;;2.00;;
15151;SDS011;7676;50.900;6.234;2024-03-25T21:23:27;2.87;;;2.00;;
15151;SDS011;7676;50.900;6.234;2024-03-25T21:38:29;4.03;;;2.20;;
15151;SDS011;7676;50.900;6.234;2024-03-25T21:53:33;2.67;;;1.87;;
15151;SDS011;7676;50.900;6.234;2024-03-25T22:08:35;3.60;;;1.70;;
15151;SDS011;7676;50.900;6.234;2024-03-25T22:23:37;3.40;;;2.37;;
15151;SDS011;7676;50.900;6.234;2024-03-25T22:38:40;5.20;;;2.17;;
15151;SDS011;7676;50.900;6.234;2024-03-25T22:53:42;4.80;;;2.00;;
15151;SDS011;7676;50.900;6.234;2024-03-25T23:08:45;4.13;;;2.30;;
15151;SDS011;7676;50.900;6.234;2024-03-25T23:23:49;5.33;;;1.93;;
15151;SDS011;7676;50.900;6.234;2024-03-25T23:38:51;5.33;;;2.30;;
15151;SDS011;7676;50.900;6.234;2024-03-25T23:53:53;4.10;;;2.00;;
